Time;durP1;ratioP1;P1;durP2;ratioP2;P2;SDS_P1;SDS_P2;PMS_P1;PMS_P2;Temp;Humidity;BMP_temperature;BMP_pressure;BME280_temperature;BME280_humidity;BME280_pressure;Samples;Min_cycle;Max_cycle;Signal;HPM_P1;HPM_P2
2021/08/16 00:01:42;;;;;;;21.88;9.90;;;;;;;22.43;43.97;95069.38;5000452;28;20068;-78
2021/08/16 00:04:08;;;;;;;22.02;9.88;;;;;;;22.42;43.97;95060.63;5035781;28;20096;-78
2021/08/16 00:06:33;;;;;;;41.03;15.70;;;;;;;22.39;44.44;95065.75;5035696;28;20026;-78
2021/08/16 00:08:59;;;;;;;42.15;16.30;;;;;;;22.34;44.78;95052.63;5016115;28;20021;-78
2021/08/16 00:11:28;;;;;;;29.40;12.90;;;;;;;22.29;44.37;95061.47;5035181;28;20490;-78
2021/08/16 00:13:53;;;;;;;33.25;12.88;;;;;;;22.30;44.33;95063.06;5032749;28;20508;-78
2021/08/16 00:16:19;;;;;;;42.47;13.70;;;;;;;22.31;44.50;95063.84;5034215;28;20029;-78
2021/08/16 00:18:47;;;;;;;40.47;15.27;;;;;;;22.26;45.06;95066.56;5042248;28;20021;-78
2021/08/16 00:21:13;;;;;;;48.60;16.80;;;;;;;22.20;45.09;95063.25;5046579;28;20029;-77
2021/08/16 00:23:38;;;;;;;40.22;14.63;;;;;;;22.14;45.24;95061.81;5047661;28;20093;-78
2021/08/16 00:26:04;;;;;;;43.63;14.02;;;;;;;22.12;45.13;95059.44;5018726;28;20109;-78
2021/08/16 00:28:29;;;;;;;30.75;12.93;;;;;;;22.11;45.00;95060.53;5000539;28;20067;-78
2021/08/16 00:30:55;;;;;;;41.58;14.88;;;;;;;22.08;45.03;95063.78;5013181;28;20417;-78
2021/08/16 00:33:20;;;;;;;38.25;14.10;;;;;;;22.02;45.27;95067.59;5015814;28;20026;-78
2021/08/16 00:35:46;;;;;;;32.10;15.55;;;;;;;22.00;45.35;95064.47;5034131;28;20064;-78
2021/08/16 00:38:11;;;;;;;45.95;14.52;;;;;;;21.97;45.29;95065.06;5031843;28;20068;-78
2021/08/16 00:40:36;;;;;;;25.08;11.32;;;;;;;21.95;45.19;95066.41;5037824;28;20045;-78
2021/08/16 00:43:02;;;;;;;32.15;13.73;;;;;;;21.88;45.38;95062.31;5044803;28;20053;-78
2021/08/16 00:45:29;;;;;;;24.85;9.95;;;;;;;21.87;45.46;95066.03;5017583;28;20103;-80
2021/08/16 00:47:54;;;;;;;18.55;10.35;;;;;;;21.85;45.33;95064.78;5037494;28;20437;-80
2021/08/16 00:50:20;;;;;;;32.58;12.13;;;;;;;21.81;45.60;95061.94;5042848;22;20187;-80
2021/08/16 00:52:45;;;;;;;20.80;9.95;;;;;;;21.85;45.66;95067.44;5054894;28;20091;-80
2021/08/16 00:55:12;;;;;;;14.55;8.07;;;;;;;21.81;45.35;95061.94;5056641;28;20098;-80
2021/08/16 00:57:37;;;;;;;13.75;8.50;;;;;;;21.79;45.22;95060.66;5059442;22;20008;-80
2021/08/16 01:00:09;;;;;;;17.85;8.75;;;;;;;21.75;45.47;95063.09;5054652;28;20044;-80
2021/08/16 01:02:37;;;;;;;10.38;7.78;;;;;;;21.75;45.74;95067.63;5132107;22;20105;-80
2021/08/16 01:05:04;;;;;;;10.10;6.82;;;;;;;21.73;45.63;95067.91;5036554;28;20111;-80
2021/08/16 01:07:36;;;;;;;14.88;8.32;;;;;;;21.73;45.75;95069.78;5034534;28;20402;-80
2021/08/16 01:10:02;;;;;;;21.23;9.30;;;;;;;21.71;46.07;95066.66;5036648;28;20025;-80
2021/08/16 01:12:29;;;;;;;41.55;19.48;;;;;;;21.69;45.95;95068.81;5034248;28;20116;-80
2021/08/16 01:14:54;;;;;;;62.70;27.73;;;;;;;21.66;45.88;95059.59;5036767;28;20041;-80
2021/08/16 01:17:20;;;;;;;33.20;19.77;;;;;;;21.63;46.28;95060.16;5018863;28;20436;-80
2021/08/16 01:19:45;;;;;;;30.55;15.63;;;;;;;21.61;46.13;95066.84;5002474;28;20033;-80
2021/08/16 01:22:14;;;;;;;20.85;10.13;;;;;;;21.60;45.83;95070.56;5018632;28;20508;-80
2021/08/16 01:24:41;;;;;;;21.67;10.70;;;;;;;21.58;45.71;95079.59;5018970;28;20017;-80
2021/08/16 01:27:07;;;;;;;25.48;11.13;;;;;;;21.57;46.32;95067.44;5035466;28;20037;-78
2021/08/16 01:29:33;;;;;;;22.42;10.32;;;;;;;21.57;46.28;95069.28;5034459;28;20022;-78
2021/08/16 01:32:02;;;;;;;17.08;10.10;;;;;;;21.54;46.44;95072.53;5037091;28;20030;-79
2021/08/16 01:34:27;;;;;;;25.92;9.85;;;;;;;21.52;46.57;95070.19;5036329;28;20109;-79
2021/08/16 01:36:53;;;;;;;19.85;10.98;;;;;;;21.50;46.32;95061.75;5036686;28;20444;-79
2021/08/16 01:39:19;;;;;;;23.45;12.00;;;;;;;21.42;46.71;95065.09;5036922;28;20034;-79
2021/08/16 01:41:47;;;;;;;36.03;19.42;;;;;;;21.38;47.06;95064.09;5018882;28;20033;-79
2021/08/16 01:44:14;;;;;;;47.95;22.27;;;;;;;21.35;47.03;95062.06;5018425;28;20030;-79
2021/08/16 01:46:41;;;;;;;58.45;27.00;;;;;;;21.27;46.98;95052.91;5019105;28;20061;-79
2021/08/16 01:49:08;;;;;;;51.42;28.80;;;;;;;21.23;47.27;95059.84;5018413;28;20515;-79
2021/08/16 01:51:34;;;;;;;66.47;32.53;;;;;;;21.21;47.40;95061.22;5018934;28;20040;-79
2021/08/16 01:53:59;;;;;;;97.43;50.28;;;;;;;21.22;47.55;95065.44;5036324;28;20061;-80
2021/08/16 01:56:25;;;;;;;109.82;56.65;;;;;;;21.17;47.51;95054.94;5017989;28;20040;-79
2021/08/16 01:58:50;;;;;;;99.72;53.70;;;;;;;21.15;47.75;95054.44;5034894;28;20030;-79
2021/08/16 02:01:15;;;;;;;135.00;66.78;;;;;;;21.09;47.83;95059.03;5018274;28;20532;-79
2021/08/16 02:03:41;;;;;;;141.43;71.05;;;;;;;21.04;48.22;95056.50;5036322;28;20033;-79
2021/08/16 02:06:06;;;;;;;141.27;67.70;;;;;;;21.01;48.10;95053.66;5034002;28;20029;-80
2021/08/16 02:08:32;;;;;;;143.93;71.68;;;;;;;21.00;48.05;95054.72;5034063;28;20090;-80
2021/08/16 02:10:57;;;;;;;132.80;70.03;;;;;;;20.94;48.30;95049.50;5035915;28;20021;-79
2021/08/16 02:13:23;;;;;;;158.82;86.07;;;;;;;20.88;48.17;95045.41;5035157;28;20040;-80
2021/08/16 02:15:48;;;;;;;134.13;69.60;;;;;;;20.83;48.54;95053.44;5035881;28;20041;-80
2021/08/16 02:18:13;;;;;;;140.25;69.78;;;;;;;20.85;47.95;95055.78;5034187;28;20025;-80
2021/08/16 02:20:39;;;;;;;108.88;45.00;;;;;;;20.83;48.47;95057.94;5034420;28;20231;-80
2021/08/16 02:23:04;;;;;;;63.55;29.00;;;;;;;20.76;48.60;95053.00;5036028;28;20036;-80
2021/08/16 02:25:29;;;;;;;69.35;25.73;;;;;;;20.76;48.72;95054.84;5036448;28;20060;-80
2021/08/16 02:27:55;;;;;;;51.97;24.27;;;;;;;20.73;48.85;95053.59;5035810;28;20550;-80
2021/08/16 02:30:21;;;;;;;66.05;26.38;;;;;;;20.72;48.75;95056.50;5035881;28;20030;-79
2021/08/16 02:32:46;;;;;;;50.70;21.58;;;;;;;20.70;48.98;95053.38;5034542;28;20033;-79
2021/08/16 02:35:12;;;;;;;49.92;20.13;;;;;;;20.65;49.22;95057.66;5036198;28;20099;-79
2021/08/16 02:37:37;;;;;;;35.55;16.88;;;;;;;20.60;49.15;95065.66;5034525;28;20413;-79
2021/08/16 02:40:03;;;;;;;33.85;13.10;;;;;;;20.55;49.41;95067.63;5034972;28;20515;-79
2021/08/16 02:42:29;;;;;;;27.13;11.38;;;;;;;20.49;49.54;95066.88;5040721;22;20072;-79
2021/08/16 02:44:54;;;;;;;29.70;11.48;;;;;;;20.44;49.54;95063.53;5035727;28;20072;-79
2021/08/16 02:47:21;;;;;;;27.52;11.13;;;;;;;20.42;49.77;95065.69;5034551;28;20030;-80
2021/08/16 02:49:49;;;;;;;25.08;10.32;;;;;;;20.39;49.57;95062.53;5034610;28;20450;-79
2021/08/16 02:52:14;;;;;;;29.80;9.85;;;;;;;20.38;49.65;95058.31;5098852;22;20048;-79
2021/08/16 02:54:40;;;;;;;20.85;8.80;;;;;;;20.33;49.85;95057.59;5035193;28;20042;-79
2021/08/16 02:57:05;;;;;;;15.85;8.98;;;;;;;20.28;50.10;95061.09;5050328;22;20018;-79
2021/08/16 02:59:33;;;;;;;27.73;10.85;;;;;;;20.28;50.24;95070.88;5034452;28;20033;-78
2021/08/16 03:01:59;;;;;;;28.13;10.43;;;;;;;20.26;50.25;95073.81;5035525;28;20029;-78
2021/08/16 03:04:24;;;;;;;23.00;11.05;;;;;;;20.23;50.17;95063.03;5040531;22;20110;-78
2021/08/16 03:06:50;;;;;;;26.65;10.52;;;;;;;20.23;50.20;95066.47;5035145;28;20044;-79
2021/08/16 03:09:15;;;;;;;28.13;11.27;;;;;;;20.19;50.33;95054.91;5035147;28;20033;-78
2021/08/16 03:11:41;;;;;;;20.50;9.77;;;;;;;20.21;50.18;95058.03;5016383;28;20030;-79
2021/08/16 03:14:06;;;;;;;17.40;9.55;;;;;;;20.18;50.18;95066.53;5035383;28;20025;-78
2021/08/16 03:16:32;;;;;;;17.35;9.10;;;;;;;20.19;50.11;95060.19;5035228;28;20018;-79
2021/08/16 03:18:57;;;;;;;24.05;10.35;;;;;;;20.17;50.11;95062.31;5035884;28;20039;-78
2021/08/16 03:21:28;;;;;;;26.95;10.52;;;;;;;20.15;50.36;95059.16;5034864;28;20033;-79
2021/08/16 03:23:54;;;;;;;28.08;10.82;;;;;;;20.14;50.13;95057.59;5034623;28;20251;-79
2021/08/16 03:28:46;;;;;;;21.77;9.48;;;;;;;20.08;50.87;95064.03;5053361;28;20045;-78
2021/08/16 03:31:12;;;;;;;19.98;8.50;;;;;;;20.09;50.40;95060.31;5054639;28;20481;-79
2021/08/16 03:33:37;;;;;;;27.00;10.40;;;;;;;20.08;50.38;95069.31;5054942;28;20033;-79
2021/08/16 03:36:03;;;;;;;25.20;9.90;;;;;;;20.07;50.26;95070.38;5037180;28;20473;-79
2021/08/16 03:38:28;;;;;;;19.60;10.23;;;;;;;20.01;50.50;95064.41;5021211;28;20404;-79
2021/08/16 03:40:54;;;;;;;21.80;9.77;;;;;;;19.99;50.61;95066.50;5037198;28;20033;-79
2021/08/16 03:43:19;;;;;;;22.73;9.00;;;;;;;19.98;50.82;95069.44;5035272;28;20025;-79
2021/08/16 03:45:46;;;;;;;34.60;8.50;;;;;;;20.02;50.77;95073.09;5054833;28;20033;-78
2021/08/16 03:48:11;;;;;;;16.17;8.23;;;;;;;19.99;50.71;95071.78;5021042;28;20032;-79
2021/08/16 03:50:36;;;;;;;44.13;10.50;;;;;;;20.05;50.84;95075.16;5037526;28;20041;-79
2021/08/16 03:53:02;;;;;;;30.02;10.45;;;;;;;20.08;50.67;95071.94;5037055;28;20030;-78
2021/08/16 03:55:27;;;;;;;22.05;9.63;;;;;;;20.14;50.28;95081.38;5036651;28;20033;-79
2021/08/16 03:57:59;;;;;;;24.05;9.32;;;;;;;20.20;50.26;95082.09;5036126;28;20489;-79
2021/08/16 04:00:24;;;;;;;37.10;10.00;;;;;;;20.23;50.01;95071.75;5054466;28;20029;-79
2021/08/16 04:02:50;;;;;;;27.92;8.23;;;;;;;20.31;49.94;95079.00;5052419;28;20401;-78
2021/08/16 04:05:15;;;;;;;19.50;8.88;;;;;;;20.35;49.75;95077.38;5054444;28;20512;-79
2021/08/16 04:07:44;;;;;;;17.30;9.20;;;;;;;20.43;49.54;95078.63;5037804;28;20033;-79
2021/08/16 04:10:11;;;;;;;29.30;8.73;;;;;;;20.67;49.33;95075.88;5053112;28;20036;-78
2021/08/16 04:12:36;;;;;;;31.95;8.27;;;;;;;21.84;46.47;95087.03;5052325;28;20091;-78
2021/08/16 04:15:03;;;;;;;31.50;8.35;;;;;;;23.18;43.03;95073.94;5055046;28;20029;-78
2021/08/16 04:17:29;;;;;;;21.75;8.02;;;;;;;24.58;40.04;95086.53;5054599;28;20052;-78
2021/08/16 04:19:54;;;;;;;30.38;8.70;;;;;;;25.86;37.26;95083.88;5036933;28;20079;-78
2021/08/16 04:22:20;;;;;;;27.63;8.70;;;;;;;27.13;34.87;95077.13;5034964;28;20455;-78
2021/08/16 04:24:45;;;;;;;16.23;8.23;;;;;;;28.31;32.76;95080.88;5056313;28;20025;-78
2021/08/16 04:27:10;;;;;;;16.88;8.90;;;;;;;29.43;30.52;95080.88;5056645;28;20036;-78
2021/08/16 04:29:36;;;;;;;17.17;7.20;;;;;;;30.62;28.99;95078.69;5056185;28;20029;-78
2021/08/16 04:32:07;;;;;;;24.98;8.80;;;;;;;31.57;27.08;95070.88;5060275;28;20116;-78
2021/08/16 04:34:33;;;;;;;13.32;7.57;;;;;;;32.49;25.26;95070.69;5055333;22;20495;-78
2021/08/16 04:36:58;;;;;;;10.60;5.88;;;;;;;33.32;23.83;95073.94;5039900;28;20037;-78
2021/08/16 04:39:24;;;;;;;6.93;5.30;;;;;;;33.96;22.69;95074.53;5036538;28;20022;-79
2021/08/16 04:41:50;;;;;;;11.20;5.32;;;;;;;34.71;22.25;95076.91;5035916;28;20033;-79
2021/08/16 04:44:16;;;;;;;10.57;5.32;;;;;;;35.78;20.42;95081.38;5036961;28;20024;-79
2021/08/16 04:46:41;;;;;;;12.45;5.50;;;;;;;36.59;19.61;95070.84;5042886;22;20437;-79
2021/08/16 04:49:07;;;;;;;13.60;5.93;;;;;;;37.52;18.93;95080.06;5035197;28;20037;-79
2021/08/16 04:51:32;;;;;;;12.93;6.30;;;;;;;37.91;18.58;95068.16;5036536;28;20038;-78
2021/08/16 04:53:57;;;;;;;14.50;6.20;;;;;;;38.53;17.51;95064.44;5041197;22;20041;-79
2021/08/16 04:56:23;;;;;;;9.32;6.05;;;;;;;39.33;17.07;95074.72;5036459;28;20528;-79
2021/08/16 04:58:48;;;;;;;18.17;6.10;;;;;;;40.38;16.63;95078.09;5033703;28;20225;-80
2021/08/16 05:01:14;;;;;;;35.85;8.07;;;;;;;41.26;15.92;95079.50;5036652;28;20043;-79
2021/08/16 05:03:42;;;;;;;14.95;6.13;;;;;;;41.86;14.94;95085.53;5036097;28;20532;-80
2021/08/16 05:06:08;;;;;;;;;;;;;;;42.72;14.25;95086.84;5037522;28;20030;-79
2021/08/16 05:08:35;;;;;;;19.35;5.75;;;;;;;43.59;13.60;95087.38;5037538;28;19975;-79
2021/08/16 05:11:04;;;;;;;17.40;5.60;;;;;;;44.40;12.82;95091.41;5037312;28;20065;-79
2021/08/16 05:13:29;;;;;;;;;;;;;;;45.16;12.35;95098.50;5038108;28;20037;-79
2021/08/16 05:15:58;;;;;;;12.05;4.75;;;;;;;45.74;11.65;95093.16;5002380;28;19920;-79
2021/08/16 05:18:23;;;;;;;14.60;5.22;;;;;;;46.47;11.00;95097.25;5037195;28;20042;-79
2021/08/16 05:20:49;;;;;;;17.42;5.32;;;;;;;46.94;10.37;95092.00;5033072;28;20021;-79
2021/08/16 05:23:18;;;;;;;17.40;5.13;;;;;;;47.48;10.23;95092.31;5036762;28;20029;-79
2021/08/16 05:25:45;;;;;;;16.75;5.28;;;;;;;47.89;9.85;95084.50;5037591;28;20079;-79
2021/08/16 05:28:10;;;;;;;12.27;4.55;;;;;;;48.24;9.41;95093.00;5032882;28;20044;-79
2021/08/16 05:30:35;;;;;;;11.77;4.82;;;;;;;48.88;9.25;95092.47;5036862;28;20053;-79
2021/08/16 05:33:01;;;;;;;8.20;5.18;;;;;;;49.39;9.26;95094.84;5041696;22;20064;-79
2021/08/16 05:35:26;;;;;;;22.90;5.53;;;;;;;49.72;9.28;95088.31;5037201;28;20026;-80
2021/08/16 05:37:52;;;;;;;14.48;4.55;;;;;;;49.93;8.54;95091.84;5036937;28;20053;-78
2021/08/16 05:40:17;;;;;;;14.68;4.28;;;;;;;50.30;8.32;95086.56;5002063;28;20079;-78
2021/08/16 05:42:43;;;;;;;19.17;4.97;;;;;;;50.31;8.64;95086.06;5019429;28;20092;-79
2021/08/16 05:45:09;;;;;;;25.83;5.03;;;;;;;50.87;8.42;95088.69;5036740;28;20503;-79
2021/08/16 05:47:34;;;;;;;14.82;5.22;;;;;;;51.06;8.10;95094.66;5035874;28;20021;-80
2021/08/16 05:50:00;;;;;;;14.52;4.40;;;;;;;51.74;7.46;95091.16;5018479;28;20034;-80
2021/08/16 05:52:28;;;;;;;;;;;;;;;51.75;7.53;95087.13;5019768;28;20029;-80
2021/08/16 05:54:54;;;;;;;;;;;;;;;52.32;7.15;95088.94;5042910;22;19967;-80
2021/08/16 05:57:19;;;;;;;;;;;;;;;52.78;6.89;95089.34;5036972;28;19921;-80
2021/08/16 05:59:45;;;;;;;9.67;4.13;;;;;;;53.13;6.25;95096.47;5036818;28;19913;-80
2021/08/16 06:02:10;;;;;;;18.43;4.37;;;;;;;53.30;6.60;95086.09;5035533;28;20484;-80
2021/08/16 06:04:35;;;;;;;6.60;3.85;;;;;;;53.55;6.20;95087.09;5002967;28;20022;-80
2021/08/16 06:07:01;;;;;;;6.85;3.83;;;;;;;53.71;5.82;95085.56;5019048;28;20041;-80
2021/08/16 06:09:27;;;;;;;11.05;3.60;;;;;;;53.75;5.71;95083.28;5019812;28;20029;-80
2021/08/16 06:11:52;;;;;;;7.18;3.78;;;;;;;53.74;5.97;95086.56;5016292;28;20034;-80
2021/08/16 06:14:18;;;;;;;10.25;3.85;;;;;;;53.30;6.49;95085.31;5036141;28;20026;-80
2021/08/16 06:16:43;;;;;;;15.55;4.45;;;;;;;52.87;6.86;95076.47;5036512;28;20025;-80
2021/08/16 06:19:09;;;;;;;10.15;3.88;;;;;;;51.97;7.27;95081.72;5034790;28;20021;-79
2021/08/16 06:21:42;;;;;;;12.02;4.00;;;;;;;51.39;7.69;95083.88;5018589;28;20052;-80
2021/08/16 06:24:08;;;;;;;14.73;4.00;;;;;;;50.20;8.20;95083.16;5003355;28;20102;-80
2021/08/16 06:26:34;;;;;;;44.80;5.68;;;;;;;48.78;8.99;95091.03;5016948;28;20029;-79
2021/08/16 06:28:59;;;;;;;17.58;4.88;;;;;;;47.50;9.89;95092.59;5036690;28;20033;-79
2021/08/16 06:31:25;;;;;;;17.13;4.60;;;;;;;46.40;10.93;95090.06;5036369;28;20025;-78
2021/08/16 06:33:54;;;;;;;17.45;4.82;;;;;;;45.51;11.16;95082.66;5036366;28;20068;-79
2021/08/16 06:36:20;;;;;;;15.27;4.65;;;;;;;44.66;11.85;95083.09;5018368;28;20029;-79
2021/08/16 06:38:47;;;;;;;23.02;4.93;;;;;;;43.78;12.25;95082.94;5018718;28;20037;-79
2021/08/16 06:41:13;;;;;;;15.68;5.45;;;;;;;42.95;12.95;95072.13;5035650;28;20071;-80
2021/08/16 06:43:39;;;;;;;11.68;4.60;;;;;;;42.28;13.50;95080.19;5000652;28;20227;-79
2021/08/16 06:46:04;;;;;;;7.20;4.70;;;;;;;41.73;14.25;95074.53;5035309;28;20409;-79
2021/08/16 06:48:30;;;;;;;7.32;5.20;;;;;;;41.22;14.28;95078.78;5036574;28;20033;-78
2021/08/16 06:50:56;;;;;;;11.32;4.82;;;;;;;40.61;15.03;95079.25;5036232;28;20508;-79
2021/08/16 06:53:21;;;;;;;13.70;5.43;;;;;;;39.95;15.52;95082.75;5018926;28;20057;-79
2021/08/16 06:55:47;;;;;;;11.45;5.13;;;;;;;39.46;15.75;95085.03;5002206;28;20026;-79
2021/08/16 06:58:13;;;;;;;11.73;5.30;;;;;;;38.31;16.76;95084.88;5035505;28;20029;-78
2021/08/16 07:00:44;;;;;;;15.15;5.45;;;;;;;37.78;17.57;95080.69;5017987;28;20025;-79
2021/08/16 07:03:10;;;;;;;17.88;5.47;;;;;;;37.17;18.46;95081.06;5017838;28;20049;-78
2021/08/16 07:05:43;;;;;;;15.52;5.25;;;;;;;37.01;18.51;95078.06;5034815;28;20490;-79
2021/08/16 07:08:09;;;;;;;6.80;5.28;;;;;;;36.71;18.64;95081.25;5017651;28;20573;-78
2021/08/16 07:10:35;;;;;;;22.30;6.97;;;;;;;36.58;19.43;95078.19;5035614;28;20040;-79
2021/08/16 07:13:06;;;;;;;19.75;6.00;;;;;;;36.45;19.55;95070.88;5001339;28;20404;-79
2021/08/16 07:15:34;;;;;;;25.48;6.03;;;;;;;36.40;19.12;95071.28;4997713;28;20030;-79
2021/08/16 07:18:00;;;;;;;16.70;5.78;;;;;;;36.32;19.23;95082.16;5035321;28;20120;-79
2021/08/16 07:20:27;;;;;;;18.38;5.90;;;;;;;36.28;18.81;95086.00;5034626;28;20489;-79
2021/08/16 07:22:52;;;;;;;20.30;6.00;;;;;;;36.15;19.29;95077.53;5015594;28;20036;-79
2021/08/16 07:25:21;;;;;;;15.40;6.22;;;;;;;36.11;19.18;95078.69;5035327;28;20021;-79
2021/08/16 07:27:59;;;;;;;20.88;6.50;;;;;;;35.97;19.49;95087.63;5034925;28;20111;-79
2021/08/16 07:30:57;;;;;;;12.40;6.15;;;;;;;35.64;20.36;95086.81;5035335;28;20116;-79
2021/08/16 07:33:22;;;;;;;18.08;6.18;;;;;;;35.58;20.18;95082.94;5028492;22;20053;-78
2021/08/16 07:35:48;;;;;;;13.60;6.07;;;;;;;35.58;19.86;95080.22;5050485;28;20421;-80
2021/08/16 07:38:16;;;;;;;13.82;6.22;;;;;;;35.66;20.21;95078.31;5051520;28;20139;-80
2021/08/16 07:40:48;;;;;;;29.15;6.65;;;;;;;35.45;20.14;95071.72;5051103;28;20033;-78
2021/08/16 07:43:17;;;;;;;15.40;6.07;;;;;;;35.37;20.51;95082.91;5054172;28;20025;-78
2021/08/16 07:45:42;;;;;;;18.60;7.00;;;;;;;35.36;20.17;95078.66;5058297;28;20116;-79
2021/08/16 07:48:07;;;;;;;14.90;6.47;;;;;;;35.22;20.67;95078.63;5057992;28;20040;-78
2021/08/16 07:50:35;;;;;;;12.95;6.78;;;;;;;35.11;20.58;95075.88;5058961;28;20025;-79
2021/08/16 07:53:03;;;;;;;24.95;6.80;;;;;;;34.97;20.73;95073.91;5058961;28;20420;-79
2021/08/16 07:55:29;;;;;;;21.95;6.88;;;;;;;34.88;20.40;95076.22;5058561;28;20029;-79
2021/08/16 07:57:54;;;;;;;16.95;6.82;;;;;;;34.80;20.59;95061.09;5057477;28;20055;-78
2021/08/16 08:00:19;;;;;;;19.30;6.50;;;;;;;34.76;20.49;95060.31;5056889;28;20056;-78
2021/08/16 08:02:46;;;;;;;29.67;7.07;;;;;;;34.58;20.52;95061.00;5059595;28;20215;-78
2021/08/16 08:05:19;;;;;;;17.67;6.60;;;;;;;34.36;21.14;95067.47;5059230;28;20033;-78
2021/08/16 08:07:45;;;;;;;12.57;6.22;;;;;;;34.38;20.93;95062.47;5040461;28;20111;-78
2021/08/16 08:10:14;;;;;;;14.95;6.20;;;;;;;34.39;20.51;95063.25;5023930;28;20044;-77
2021/08/16 08:12:44;;;;;;;18.95;6.78;;;;;;;34.30;21.16;95060.84;5058229;28;20055;-79
2021/08/16 08:15:09;;;;;;;10.82;6.05;;;;;;;34.37;21.01;95054.75;5058347;28;20040;-79
2021/08/16 08:17:35;;;;;;;16.17;6.60;;;;;;;34.38;21.79;95067.88;5056189;28;20110;-78
2021/08/16 08:20:00;;;;;;;22.63;5.97;;;;;;;34.37;21.42;95063.63;5058113;28;20033;-79
2021/08/16 08:22:26;;;;;;;24.10;6.50;;;;;;;34.36;20.83;95053.97;5057473;28;20031;-78
2021/08/16 08:24:52;;;;;;;18.20;6.50;;;;;;;34.36;21.18;95051.28;5039941;28;20123;-79
2021/08/16 08:27:18;;;;;;;12.35;5.75;;;;;;;34.41;21.65;95044.75;5040301;28;20029;-79
2021/08/16 08:29:43;;;;;;;28.10;6.68;;;;;;;34.41;21.63;95050.91;5056842;28;20040;-79
2021/08/16 08:32:09;;;;;;;10.02;5.50;;;;;;;34.39;21.72;95042.41;5058258;28;20037;-79
2021/08/16 08:34:34;;;;;;;14.13;6.82;;;;;;;34.43;22.04;95037.81;5040665;28;20029;-79
2021/08/16 08:37:00;;;;;;;27.40;6.18;;;;;;;34.44;20.85;95042.03;5070877;22;20053;-79
2021/08/16 08:39:26;;;;;;;23.88;5.85;;;;;;;34.27;21.18;95034.59;5038477;28;20073;-78
2021/08/16 08:41:53;;;;;;;22.30;6.28;;;;;;;34.19;21.61;95038.44;5039025;28;20040;-77
2021/08/16 08:44:19;;;;;;;29.25;6.95;;;;;;;34.13;21.33;95026.44;5040835;28;20033;-78
2021/08/16 08:46:44;;;;;;;21.95;5.82;;;;;;;34.12;21.70;95022.19;5022978;28;20036;-78
2021/08/16 08:49:10;;;;;;;15.52;6.35;;;;;;;33.90;21.85;95024.78;5042795;22;20066;-79
2021/08/16 08:51:36;;;;;;;26.40;5.47;;;;;;;33.70;21.93;95024.22;5038341;28;20037;-79
2021/08/16 08:54:03;;;;;;;16.65;6.60;;;;;;;33.45;22.12;95017.09;5037347;28;20029;-79
2021/08/16 08:56:36;;;;;;;13.70;6.75;;;;;;;33.47;21.89;95014.78;5020079;28;20041;-79
2021/08/16 08:59:02;;;;;;;20.85;6.57;;;;;;;33.51;21.98;95013.66;5037919;28;20473;-79
2021/08/16 09:01:27;;;;;;;18.83;6.75;;;;;;;33.53;22.41;95013.31;5038342;28;20064;-78
2021/08/16 09:03:54;;;;;;;16.80;5.95;;;;;;;33.49;22.11;95012.50;5037261;28;20053;-78
2021/08/16 09:06:32;;;;;;;20.25;6.43;;;;;;;33.42;22.34;95013.22;5036901;28;20037;-79
2021/08/16 09:08:58;;;;;;;17.23;6.00;;;;;;;33.42;22.42;95002.44;5036743;28;20527;-79
2021/08/16 09:11:27;;;;;;;32.35;6.30;;;;;;;33.50;22.88;95003.25;5036689;28;20033;-78
2021/08/16 09:14:05;;;;;;;17.80;5.70;;;;;;;33.26;21.82;95005.34;5036842;28;20048;-78
2021/08/16 09:16:37;;;;;;;20.25;5.40;;;;;;;32.78;22.48;94997.19;5037750;28;20029;-78
2021/08/16 09:19:12;;;;;;;15.88;5.88;;;;;;;32.81;23.25;95001.84;5037856;28;20021;-78
2021/08/16 09:21:41;;;;;;;22.33;5.90;;;;;;;32.90;22.66;94998.09;5039489;28;20489;-77
2021/08/16 09:24:06;;;;;;;10.20;5.90;;;;;;;32.89;22.83;95001.94;5041703;28;20037;-77
2021/08/16 09:26:37;;;;;;;13.65;5.70;;;;;;;32.81;22.41;94996.47;5020920;28;20056;-78
2021/08/16 09:29:19;;;;;;;11.07;6.10;;;;;;;32.83;22.77;94998.78;5040956;28;20025;-77
2021/08/16 09:32:01;;;;;;;14.48;5.80;;;;;;;32.50;22.48;94986.09;5040736;28;20080;-77
2021/08/16 09:34:37;;;;;;;6.63;5.32;;;;;;;32.53;22.66;94979.97;5042269;28;20026;-77
2021/08/16 09:37:20;;;;;;;9.52;5.45;;;;;;;32.07;23.80;94988.25;5037884;28;20060;-78
2021/08/16 09:39:56;;;;;;;13.40;5.40;;;;;;;32.09;23.28;94987.88;5035755;28;20029;-79
2021/08/16 09:42:21;;;;;;;11.80;5.55;;;;;;;32.00;23.27;94974.69;5004881;28;20044;-78
2021/08/16 09:44:48;;;;;;;13.18;5.68;;;;;;;31.79;23.61;94974.41;5035769;28;20026;-78
2021/08/16 09:47:14;;;;;;;19.05;5.82;;;;;;;31.85;23.48;94978.31;5036416;28;20041;-79
2021/08/16 09:49:39;;;;;;;18.77;5.32;;;;;;;31.93;23.18;94975.38;5036244;28;20025;-79
2021/08/16 09:52:11;;;;;;;21.60;6.80;;;;;;;32.00;23.37;94976.59;5035375;28;20048;-79
2021/08/16 09:54:38;;;;;;;16.13;5.93;;;;;;;32.05;23.13;94970.91;5035661;28;20477;-78
2021/08/16 09:57:04;;;;;;;12.05;5.15;;;;;;;32.01;22.81;94964.72;5037571;28;20041;-78
2021/08/16 09:59:30;;;;;;;14.15;5.20;;;;;;;32.01;23.04;94967.41;5038447;28;20091;-78
2021/08/16 10:01:56;;;;;;;13.57;5.30;;;;;;;31.87;22.62;94962.59;5003494;28;20083;-78
2021/08/16 10:04:22;;;;;;;18.10;5.50;;;;;;;31.82;22.62;94960.22;5041013;22;20036;-78
2021/08/16 10:06:54;;;;;;;10.43;5.18;;;;;;;31.83;22.83;94956.41;5063574;22;20037;-78
2021/08/16 10:09:21;;;;;;;13.55;5.25;;;;;;;31.90;22.71;94953.81;5035857;28;20104;-78
2021/08/16 10:11:50;;;;;;;15.30;5.13;;;;;;;31.97;22.04;94948.53;5041437;22;20141;-78
2021/08/16 10:14:17;;;;;;;21.10;4.95;;;;;;;32.00;22.60;94934.34;5019039;28;20046;-77
2021/08/16 10:16:43;;;;;;;9.88;4.97;;;;;;;31.89;22.35;94938.81;4999715;28;20037;-77
2021/08/16 10:19:11;;;;;;;13.98;5.03;;;;;;;31.93;22.45;94932.34;5014850;28;20057;-78
2021/08/16 10:21:37;;;;;;;12.77;4.72;;;;;;;31.93;22.62;94931.56;5015913;28;20030;-77
2021/08/16 10:24:25;;;;;;;14.07;5.00;;;;;;;31.61;23.00;94934.59;5025419;22;20125;-78
2021/08/16 10:26:55;;;;;;;14.20;5.25;;;;;;;31.22;23.57;94931.31;5039013;28;20033;-77
2021/08/16 10:29:21;;;;;;;17.15;5.32;;;;;;;31.25;23.52;94929.84;5039700;28;20029;-77
2021/08/16 10:31:50;;;;;;;11.68;4.97;;;;;;;31.20;23.07;94927.44;5039969;28;20037;-77
2021/08/16 10:34:24;;;;;;;6.82;4.68;;;;;;;31.23;22.85;94924.00;5006306;28;20032;-77
2021/08/16 10:37:00;;;;;;;11.55;4.95;;;;;;;31.19;22.84;94921.28;5041119;28;20034;-78
2021/08/16 10:39:42;;;;;;;11.02;4.72;;;;;;;31.09;23.08;94913.81;5020956;28;20105;-77
2021/08/16 10:42:10;;;;;;;9.05;5.00;;;;;;;31.11;23.04;94924.19;5041138;28;20051;-77
2021/08/16 10:44:41;;;;;;;9.13;4.72;;;;;;;31.11;23.16;94908.84;5038467;28;20099;-79
2021/08/16 10:47:07;;;;;;;9.20;5.28;;;;;;;31.06;22.96;94912.59;5036994;28;20489;-80
2021/08/16 10:49:36;;;;;;;6.05;4.95;;;;;;;31.12;22.79;94906.94;5036818;28;20037;-78
2021/08/16 10:52:01;;;;;;;9.30;4.82;;;;;;;31.28;22.80;94900.31;5036495;28;20065;-78
2021/08/16 10:54:28;;;;;;;9.13;5.00;;;;;;;31.37;23.00;94908.09;5035381;28;20025;-79
2021/08/16 10:56:55;;;;;;;5.32;4.55;;;;;;;31.31;22.83;94901.50;5018554;28;20065;-78
2021/08/16 10:59:21;;;;;;;12.95;4.72;;;;;;;31.34;22.67;94900.78;5035296;28;20037;-80
2021/08/16 11:01:47;;;;;;;8.73;5.13;;;;;;;31.39;22.63;94892.41;5017466;28;20092;-79
2021/08/16 11:04:18;;;;;;;6.47;4.35;;;;;;;31.41;22.43;94884.78;5056199;22;20103;-78
2021/08/16 11:06:54;;;;;;;15.10;5.10;;;;;;;31.43;23.27;94887.09;5034777;28;20068;-79
2021/08/16 11:09:24;;;;;;;8.57;4.80;;;;;;;31.52;22.94;94882.22;5037782;28;20033;-81
2021/08/16 11:11:52;;;;;;;6.25;4.80;;;;;;;31.41;23.28;94874.03;5033671;28;20100;-77
2021/08/16 11:14:22;;;;;;;14.52;5.43;;;;;;;31.49;23.65;94872.19;5033730;28;20064;-78
2021/08/16 11:16:52;;;;;;;12.23;5.05;;;;;;;31.43;22.74;94877.13;5033143;28;20041;-78
2021/08/16 11:19:17;;;;;;;7.13;4.47;;;;;;;31.46;22.60;94871.00;5039046;28;20022;-80
2021/08/16 11:21:53;;;;;;;8.73;5.10;;;;;;;31.51;22.96;94867.22;5054871;28;20433;-80
2021/08/16 11:24:28;;;;;;;10.05;4.78;;;;;;;31.60;23.25;94863.13;5038600;28;20028;-80
2021/08/16 11:26:54;;;;;;;5.30;4.60;;;;;;;31.65;23.37;94865.50;5022544;28;20160;-80
2021/08/16 11:29:23;;;;;;;11.77;5.28;;;;;;;31.73;23.37;94862.91;5017914;28;20260;-78